createdAt,value
2023-02-09T00:00:06.529Z,78.90
2023-02-09T00:02:40.581Z,79.50
2023-02-09T00:05:08.392Z,79.80
2023-02-09T00:07:35.760Z,79.60
2023-02-09T00:10:03.157Z,79.50
2023-02-09T00:12:48.359Z,79.50
2023-02-09T00:15:15.052Z,79.50
2023-02-09T00:17:41.700Z,79.90
2023-02-09T00:20:09.119Z,79.70
2023-02-09T00:22:35.799Z,79.90
2023-02-09T00:25:02.609Z,80.30
2023-02-09T00:27:29.938Z,80.80
2023-02-09T00:29:56.602Z,81.20
2023-02-09T00:32:23.279Z,80.70
2023-02-09T00:34:50.054Z,80.40
2023-02-09T00:37:16.823Z,80.80
2023-02-09T00:39:45.674Z,82.00
2023-02-09T00:42:12.419Z,82.20
2023-02-09T00:44:40.279Z,81.60
2023-02-09T00:47:08.982Z,81.70
2023-02-09T00:49:35.985Z,82.00
2023-02-09T00:52:04.144Z,82.10
2023-02-09T00:54:31.070Z,81.80
2023-02-09T00:57:04.901Z,81.60
2023-02-09T00:59:35.176Z,81.80
2023-02-09T01:02:02.927Z,82.00
2023-02-09T01:04:29.941Z,81.90
2023-02-09T01:06:56.652Z,82.10
2023-02-09T01:09:23.600Z,82.00
2023-02-09T01:11:50.382Z,82.30
2023-02-09T01:14:17.858Z,82.10
2023-02-09T01:16:44.661Z,82.10
2023-02-09T01:19:13.227Z,82.20
2023-02-09T01:21:40.300Z,82.40
2023-02-09T01:24:07.252Z,82.80
2023-02-09T01:26:33.930Z,82.70
2023-02-09T01:29:00.613Z,82.90
2023-02-09T01:31:30.869Z,82.80
2023-02-09T01:33:59.479Z,83.10
2023-02-09T01:36:30.529Z,83.40
2023-02-09T01:39:00.087Z,83.10
2023-02-09T01:41:27.443Z,83.40
2023-02-09T01:44:03.506Z,83.80
2023-02-09T01:46:35.308Z,83.70
2023-02-09T01:49:13.015Z,83.80
2023-02-09T01:51:44.932Z,83.60
2023-02-09T01:54:16.929Z,83.70
2023-02-09T01:56:47.504Z,83.90
2023-02-09T01:59:15.915Z,84.00
2023-02-09T02:01:43.856Z,83.80
2023-02-09T02:04:10.910Z,83.90
2023-02-09T02:06:37.958Z,84.00
2023-02-09T02:09:14.412Z,84.40
2023-02-09T02:11:45.885Z,84.50
2023-02-09T02:14:32.050Z,84.30
2023-02-09T02:17:26.211Z,84.70
2023-02-09T02:20:08.370Z,84.40
2023-02-09T02:22:58.218Z,84.80
2023-02-09T02:25:56.412Z,84.90
2023-02-09T02:28:43.560Z,84.90
2023-02-09T02:31:39.287Z,85.00
2023-02-09T02:34:12.326Z,84.90
2023-02-09T02:37:06.626Z,85.10
2023-02-09T02:40:03.331Z,85.30
2023-02-09T02:42:48.141Z,85.80
2023-02-09T02:45:28.996Z,86.60
2023-02-09T02:48:01.900Z,86.40
2023-02-09T02:50:32.829Z,86.00
2023-02-09T02:53:03.160Z,86.30
2023-02-09T02:55:32.218Z,86.20
2023-02-09T02:58:02.668Z,86.40
2023-02-09T03:00:34.866Z,86.20
2023-02-09T03:03:09.055Z,86.30
2023-02-09T03:05:37.438Z,86.40
2023-02-09T03:08:04.446Z,86.50
2023-02-09T03:10:34.813Z,86.20
2023-02-09T03:13:15.862Z,86.20
2023-02-09T03:16:16.356Z,86.20
2023-02-09T03:19:04.186Z,85.90
2023-02-09T03:21:47.983Z,86.00
2023-02-09T03:24:20.810Z,85.80
2023-02-09T03:26:55.976Z,85.60
2023-02-09T03:29:25.516Z,85.80
2023-02-09T03:31:53.385Z,85.70
2023-02-09T03:34:20.477Z,85.80
2023-02-09T03:36:52.369Z,86.30
2023-02-09T03:39:19.193Z,86.50
2023-02-09T03:41:46.401Z,86.60
2023-02-09T03:44:29.294Z,86.80
2023-02-09T03:47:14.326Z,86.90
2023-02-09T03:49:42.155Z,86.50
2023-02-09T03:52:12.001Z,86.70
2023-02-09T03:54:39.341Z,86.80
2023-02-09T03:57:07.261Z,87.10
2023-02-09T03:59:37.522Z,87.20
2023-02-09T04:02:06.590Z,87.20
2023-02-09T04:04:33.431Z,87.00
2023-02-09T04:07:00.332Z,87.00
2023-02-09T04:09:27.476Z,87.30
2023-02-09T04:11:54.274Z,87.10
2023-02-09T04:14:20.994Z,87.30
2023-02-09T04:16:47.788Z,87.40
2023-02-09T04:19:14.578Z,87.30
2023-02-09T04:21:41.336Z,87.30
2023-02-09T04:24:08.761Z,87.30
2023-02-09T04:26:36.027Z,87.50
2023-02-09T04:29:02.935Z,87.70
2023-02-09T04:31:29.846Z,87.90
2023-02-09T04:33:56.621Z,87.80
2023-02-09T04:36:23.447Z,87.80
2023-02-09T04:38:50.772Z,87.70
2023-02-09T04:41:17.804Z,88.10
2023-02-09T04:43:46.292Z,88.20
2023-02-09T04:46:17.587Z,87.90
2023-02-09T04:48:44.792Z,87.80
2023-02-09T04:51:11.745Z,87.90
2023-02-09T04:53:38.594Z,87.80
2023-02-09T04:56:05.726Z,88.20
2023-02-09T04:58:50.977Z,88.30
2023-02-09T05:01:21.219Z,88.40
2023-02-09T05:03:48.095Z,88.40
2023-02-09T05:06:14.802Z,88.80
2023-02-09T05:08:41.463Z,88.70
2023-02-09T05:11:08.157Z,88.80
2023-02-09T05:13:34.914Z,89.00
2023-02-09T05:16:10.250Z,88.90
2023-02-09T05:18:36.971Z,89.10
2023-02-09T05:21:04.554Z,89.20
2023-02-09T05:23:31.776Z,89.30
2023-02-09T05:25:59.036Z,89.30
2023-02-09T05:28:25.803Z,89.30
2023-02-09T05:30:53.901Z,89.50
2023-02-09T05:33:22.607Z,89.40
2023-02-09T05:35:51.422Z,89.00
2023-02-09T05:38:18.719Z,89.60
2023-02-09T05:40:45.715Z,89.60
2023-02-09T05:43:12.474Z,89.80
2023-02-09T05:45:39.205Z,89.80
2023-02-09T05:48:06.571Z,90.10
2023-02-09T05:50:33.605Z,89.80
2023-02-09T05:53:07.256Z,89.80
2023-02-09T05:55:33.906Z,90.00
2023-02-09T05:58:00.558Z,89.90
2023-02-09T06:00:29.617Z,89.90
2023-02-09T06:02:56.906Z,89.80
2023-02-09T06:05:24.032Z,89.90
2023-02-09T06:07:50.789Z,90.30
2023-02-09T06:10:18.580Z,90.30
2023-02-09T06:12:45.341Z,90.60
2023-02-09T06:15:12.261Z,91.00
2023-02-09T06:17:38.912Z,90.80
2023-02-09T06:20:06.230Z,90.40
2023-02-09T06:22:32.931Z,90.20
2023-02-09T06:24:59.650Z,90.50
2023-02-09T06:27:26.401Z,90.40
2023-02-09T06:29:53.258Z,90.40
2023-02-09T06:32:19.978Z,90.20
2023-02-09T06:34:46.640Z,90.60
2023-02-09T06:37:13.301Z,90.90
2023-02-09T06:39:39.954Z,91.10
2023-02-09T06:42:06.660Z,91.60
2023-02-09T06:44:33.310Z,91.90
2023-02-09T06:46:59.977Z,91.50
2023-02-09T06:49:26.711Z,91.70
2023-02-09T06:51:53.520Z,91.70
2023-02-09T06:54:20.817Z,91.70
2023-02-09T06:56:47.795Z,91.60
2023-02-09T06:59:15.966Z,91.80
2023-02-09T07:01:42.707Z,92.00
2023-02-09T07:04:09.377Z,91.60
2023-02-09T07:06:36.029Z,91.50
2023-02-09T07:09:02.771Z,91.60
2023-02-09T07:11:30.410Z,92.20
2023-02-09T07:13:57.069Z,92.30
2023-02-09T07:16:23.797Z,92.00
2023-02-09T07:18:50.481Z,92.20
2023-02-09T07:21:19.733Z,91.90
2023-02-09T07:23:50.329Z,91.90
2023-02-09T07:26:18.583Z,92.00
2023-02-09T07:28:45.358Z,92.00
2023-02-09T07:31:14.168Z,91.60
2023-02-09T07:33:41.632Z,91.80
2023-02-09T07:36:10.864Z,91.20
2023-02-09T07:38:38.176Z,91.10
2023-02-09T07:41:06.857Z,91.10
2023-02-09T07:43:34.522Z,91.20
2023-02-09T07:46:02.790Z,91.50
2023-02-09T07:48:30.335Z,91.10
2023-02-09T07:50:57.470Z,91.00
2023-02-09T07:53:24.458Z,90.90
2023-02-09T07:55:51.259Z,90.60
2023-02-09T07:58:19.810Z,90.40
2023-02-09T08:00:48.503Z,90.00
2023-02-09T08:03:17.312Z,90.10
2023-02-09T08:05:58.501Z,90.00
2023-02-09T08:08:25.200Z,89.90
2023-02-09T08:10:52.700Z,89.50
2023-02-09T08:13:19.499Z,89.10
2023-02-09T08:15:54.532Z,89.50
2023-02-09T08:18:25.189Z,89.50
2023-02-09T08:20:53.098Z,89.00
2023-02-09T08:23:23.550Z,89.00
2023-02-09T08:25:51.763Z,88.90
2023-02-09T08:28:31.812Z,88.10
2023-02-09T08:31:05.249Z,87.90
2023-02-09T08:33:31.972Z,88.00
2023-02-09T08:35:58.647Z,88.10
2023-02-09T08:38:25.344Z,87.20
2023-02-09T08:40:51.990Z,85.70
2023-02-09T08:43:18.638Z,85.20
2023-02-09T08:45:45.719Z,83.90
2023-02-09T08:48:12.602Z,83.00
2023-02-09T08:50:39.584Z,81.80
2023-02-09T08:53:06.883Z,81.50
2023-02-09T08:55:37.092Z,80.70
2023-02-09T08:58:04.759Z,80.70
2023-02-09T09:00:32.150Z,80.60
2023-02-09T09:02:58.801Z,80.10
2023-02-09T09:05:25.489Z,80.10
2023-02-09T09:07:52.134Z,80.10
2023-02-09T09:10:18.860Z,80.10
2023-02-09T09:12:45.582Z,79.90
2023-02-09T09:15:12.310Z,78.50
2023-02-09T09:17:38.974Z,78.50
2023-02-09T09:20:06.848Z,77.30
2023-02-09T09:22:33.605Z,77.40
2023-02-09T09:25:00.300Z,76.70
2023-02-09T09:27:28.169Z,77.30
2023-02-09T09:29:55.684Z,76.50
2023-02-09T09:32:24.678Z,76.50
2023-02-09T09:34:57.398Z,76.10
2023-02-09T09:37:25.541Z,76.10
2023-02-09T09:39:52.734Z,75.10
2023-02-09T09:42:27.318Z,73.80
2023-02-09T09:44:54.749Z,75.10
2023-02-09T09:47:52.598Z,75.80
2023-02-09T09:50:36.315Z,75.40
2023-02-09T09:53:28.675Z,76.00
2023-02-09T09:55:59.355Z,75.20
2023-02-09T09:58:28.784Z,76.50
2023-02-09T10:00:55.930Z,75.10
2023-02-09T10:03:23.993Z,74.70
2023-02-09T10:05:55.726Z,74.80
2023-02-09T10:08:34.289Z,75.70
2023-02-09T10:11:05.532Z,74.40
2023-02-09T10:13:39.865Z,73.30
2023-02-09T10:16:34.567Z,74.10
2023-02-09T10:19:04.018Z,74.40
2023-02-09T10:21:34.764Z,74.60
2023-02-09T10:24:01.413Z,74.80
2023-02-09T10:26:31.674Z,73.70
2023-02-09T10:29:07.284Z,75.00
2023-02-09T10:31:38.665Z,74.70
2023-02-09T10:34:08.357Z,73.80
2023-02-09T10:36:39.532Z,73.60
2023-02-09T10:39:15.915Z,75.00
2023-02-09T10:41:49.433Z,74.50
2023-02-09T10:44:34.432Z,73.50
2023-02-09T10:47:19.213Z,74.00
2023-02-09T10:50:04.405Z,73.20
2023-02-09T10:52:36.438Z,73.40
2023-02-09T10:55:17.102Z,72.40
2023-02-09T10:57:43.844Z,72.10
2023-02-09T11:00:16.525Z,72.40
2023-02-09T11:02:52.190Z,72.60
2023-02-09T11:05:21.915Z,72.80
2023-02-09T11:08:10.443Z,73.00
2023-02-09T11:10:56.084Z,72.90
2023-02-09T11:13:25.409Z,72.40
2023-02-09T11:15:58.255Z,72.30
2023-02-09T11:18:28.406Z,73.00
2023-02-09T11:21:09.894Z,74.40
2023-02-09T11:23:44.700Z,74.70
2023-02-09T11:26:24.672Z,74.20
2023-02-09T11:29:16.170Z,73.40
2023-02-09T11:31:59.649Z,74.40
2023-02-09T11:34:54.851Z,75.00
2023-02-09T11:37:33.814Z,75.70
2023-02-09T11:40:12.480Z,76.80
2023-02-09T11:43:01.666Z,75.70
2023-02-09T11:45:42.245Z,75.90
2023-02-09T11:48:33.110Z,74.60
2023-02-09T11:51:08.767Z,74.30
2023-02-09T11:54:03.773Z,74.10
2023-02-09T11:56:30.709Z,73.40
2023-02-09T11:58:57.332Z,72.70
2023-02-09T12:01:35.325Z,73.40
2023-02-09T12:04:24.774Z,72.60
2023-02-09T12:06:57.115Z,72.30
2023-02-09T12:09:31.321Z,72.00
2023-02-09T12:12:23.843Z,72.30
2023-02-09T12:15:14.304Z,73.40
2023-02-09T12:17:47.521Z,73.80
2023-02-09T12:20:28.897Z,74.10
2023-02-09T12:23:04.361Z,80.60
2023-02-09T12:25:59.957Z,71.40
2023-02-09T12:28:32.546Z,71.10
2023-02-09T12:31:04.536Z,70.40
2023-02-09T12:33:54.135Z,71.00
2023-02-09T12:36:34.551Z,71.30
2023-02-09T12:39:06.085Z,71.30
2023-02-09T12:41:42.160Z,72.00
2023-02-09T12:44:11.842Z,71.50
2023-02-09T12:46:44.271Z,72.20
2023-02-09T12:49:11.346Z,72.10
2023-02-09T12:51:42.717Z,72.40
2023-02-09T12:54:30.987Z,72.30
2023-02-09T12:57:16.164Z,72.50
2023-02-09T13:00:00.965Z,71.30
2023-02-09T13:02:43.154Z,71.00
2023-02-09T13:05:17.596Z,70.70
2023-02-09T13:07:56.260Z,71.10
2023-02-09T13:10:25.884Z,71.00
2023-02-09T13:13:14.114Z,71.20
2023-02-09T13:15:58.923Z,72.30
2023-02-09T13:18:52.116Z,72.10
2023-02-09T13:21:36.823Z,72.00
2023-02-09T13:24:14.081Z,70.60
2023-02-09T13:26:50.856Z,71.20
2023-02-09T13:29:22.153Z,71.10
2023-02-09T13:31:59.051Z,72.00
2023-02-09T13:34:45.056Z,71.90
2023-02-09T13:37:45.083Z,71.50
2023-02-09T13:40:31.453Z,71.40
2023-02-09T13:43:10.791Z,71.50
2023-02-09T13:45:47.068Z,71.70
2023-02-09T13:48:26.409Z,72.40
2023-02-09T13:50:55.058Z,72.30
2023-02-09T13:53:24.861Z,71.70
2023-02-09T13:55:52.941Z,71.10
2023-02-09T13:58:35.690Z,70.90
2023-02-09T14:01:08.985Z,71.50
2023-02-09T14:03:57.486Z,72.60
2023-02-09T14:06:40.299Z,72.30
2023-02-09T14:09:15.495Z,72.00
2023-02-09T14:11:47.005Z,72.60
2023-02-09T14:14:24.373Z,73.20
2023-02-09T14:17:22.918Z,71.80
2023-02-09T14:19:52.318Z,71.10
2023-02-09T14:22:37.151Z,69.70
2023-02-09T14:25:28.443Z,68.30
2023-02-09T14:27:56.668Z,70.00
2023-02-09T14:30:29.422Z,71.30
2023-02-09T14:32:58.015Z,72.00
2023-02-09T14:35:28.707Z,71.80
2023-02-09T14:37:58.162Z,71.80
2023-02-09T14:40:27.752Z,69.40
2023-02-09T14:43:11.072Z,69.50
2023-02-09T14:45:39.298Z,69.40
2023-02-09T14:48:26.489Z,68.10
2023-02-09T14:50:59.229Z,68.60
2023-02-09T14:53:31.370Z,69.30
2023-02-09T14:55:58.561Z,69.50
2023-02-09T14:58:26.918Z,68.50
2023-02-09T15:00:55.484Z,67.90
2023-02-09T15:03:22.448Z,67.90
2023-02-09T15:05:50.957Z,68.40
2023-02-09T15:08:22.880Z,68.40
2023-02-09T15:10:53.737Z,69.20
2023-02-09T15:13:21.351Z,69.30
2023-02-09T15:15:48.380Z,69.00
2023-02-09T15:18:24.474Z,68.60
2023-02-09T15:20:51.754Z,68.30
2023-02-09T15:23:18.760Z,68.80
2023-02-09T15:25:45.955Z,69.10
2023-02-09T15:28:27.763Z,69.50
2023-02-09T15:30:55.957Z,70.30
2023-02-09T15:33:23.163Z,69.70
2023-02-09T15:35:50.204Z,68.90
2023-02-09T15:38:18.311Z,68.20
2023-02-09T15:41:08.563Z,69.00
2023-02-09T15:43:53.985Z,68.60
2023-02-09T15:46:39.871Z,69.80
2023-02-09T15:49:07.242Z,69.60
2023-02-09T15:51:36.958Z,69.30
2023-02-09T15:54:12.027Z,70.20
2023-02-09T15:56:39.022Z,70.60
2023-02-09T15:59:06.229Z,70.40
2023-02-09T16:01:34.414Z,69.80
2023-02-09T16:04:13.567Z,69.90
2023-02-09T16:06:50.080Z,69.90
2023-02-09T16:09:20.129Z,69.90
2023-02-09T16:11:48.256Z,69.30
2023-02-09T16:14:22.576Z,70.80
2023-02-09T16:16:49.913Z,69.70
2023-02-09T16:19:17.025Z,71.60
2023-02-09T16:21:46.491Z,73.70
2023-02-09T16:24:23.002Z,75.00
2023-02-09T16:26:49.748Z,75.40
2023-02-09T16:29:17.106Z,75.10
2023-02-09T16:31:43.865Z,75.70
2023-02-09T16:34:15.110Z,76.80
2023-02-09T16:36:42.519Z,77.60
2023-02-09T16:39:17.410Z,77.00
2023-02-09T16:41:47.597Z,78.60
2023-02-09T16:44:17.183Z,79.40
2023-02-09T16:46:45.952Z,79.80
2023-02-09T16:49:41.526Z,79.80
2023-02-09T16:52:18.166Z,80.30
2023-02-09T16:54:48.699Z,80.40
2023-02-09T16:57:18.332Z,80.30
2023-02-09T16:59:45.469Z,81.00
2023-02-09T17:02:36.684Z,80.90
2023-02-09T17:05:22.281Z,81.40
2023-02-09T17:07:55.355Z,81.60
2023-02-09T17:10:25.966Z,81.20
2023-02-09T17:12:53.880Z,81.60
2023-02-09T17:15:30.204Z,81.90
2023-02-09T17:18:02.920Z,82.30
2023-02-09T17:20:36.584Z,82.20
2023-02-09T17:23:03.587Z,83.00
2023-02-09T17:25:30.363Z,83.10
2023-02-09T17:27:57.641Z,82.90
2023-02-09T17:30:24.368Z,83.00
2023-02-09T17:32:59.632Z,83.60
2023-02-09T17:35:52.954Z,83.60
2023-02-09T17:38:27.429Z,84.50
2023-02-09T17:40:56.410Z,85.40
2023-02-09T17:43:23.802Z,85.50
2023-02-09T17:45:51.185Z,85.80
2023-02-09T17:48:22.559Z,86.20
2023-02-09T17:50:52.459Z,86.20
2023-02-09T17:53:22.580Z,86.20
2023-02-09T17:55:50.143Z,86.40
2023-02-09T17:58:17.669Z,86.10
2023-02-09T18:00:45.451Z,87.40
2023-02-09T18:03:18.523Z,87.50
2023-02-09T18:05:48.819Z,87.30
2023-02-09T18:08:15.638Z,87.80
2023-02-09T18:10:42.307Z,88.00
2023-02-09T18:13:15.747Z,88.40
2023-02-09T18:15:43.116Z,88.50
2023-02-09T18:18:09.934Z,89.20
2023-02-09T18:20:37.232Z,89.00
2023-02-09T18:23:04.816Z,89.50
2023-02-09T18:25:34.735Z,89.10
2023-02-09T18:28:02.521Z,89.40
2023-02-09T18:30:32.105Z,89.70
2023-02-09T18:32:59.418Z,89.40
2023-02-09T18:35:33.841Z,89.60
2023-02-09T18:38:05.475Z,89.60
2023-02-09T18:40:32.643Z,89.90
2023-02-09T18:43:00.537Z,90.50
2023-02-09T18:45:27.707Z,90.00
2023-02-09T18:47:54.478Z,89.90
2023-02-09T18:50:23.756Z,90.20
2023-02-09T18:52:50.814Z,90.10
2023-02-09T18:55:18.082Z,90.70
2023-02-09T18:57:45.842Z,90.80
2023-02-09T19:00:14.903Z,90.40
2023-02-09T19:02:43.092Z,90.80
2023-02-09T19:05:09.984Z,91.30
2023-02-09T19:07:36.810Z,91.40
2023-02-09T19:10:05.876Z,91.10
2023-02-09T19:12:33.339Z,91.40
2023-02-09T19:15:00.411Z,91.20
2023-02-09T19:17:27.131Z,91.00
2023-02-09T19:19:56.830Z,91.90
2023-02-09T19:22:24.054Z,92.10
2023-02-09T19:24:53.250Z,92.00
2023-02-09T19:27:20.113Z,92.00
2023-02-09T19:29:47.265Z,92.40
2023-02-09T19:32:15.057Z,92.30
2023-02-09T19:34:43.026Z,92.20
2023-02-09T19:37:10.900Z,92.20
2023-02-09T19:39:39.737Z,92.40
2023-02-09T19:42:07.487Z,92.30
2023-02-09T19:44:35.026Z,92.30
2023-02-09T19:47:01.771Z,92.20
2023-02-09T19:49:28.615Z,92.80
2023-02-09T19:51:55.287Z,93.10
2023-02-09T19:54:22.439Z,93.40
2023-02-09T19:56:49.102Z,92.90
2023-02-09T19:59:17.056Z,92.90
2023-02-09T20:01:44.309Z,92.70
2023-02-09T20:04:11.423Z,92.50
2023-02-09T20:06:38.096Z,92.80
2023-02-09T20:09:05.209Z,92.30
2023-02-09T20:11:33.190Z,92.90
2023-02-09T20:16:28.058Z,93.10
2023-02-09T20:18:54.827Z,93.10
2023-02-09T20:21:22.865Z,92.70
2023-02-09T20:23:54.182Z,93.00
2023-02-09T20:26:24.438Z,93.20
2023-02-09T20:28:51.135Z,93.20
2023-02-09T20:31:23.840Z,93.00
2023-02-09T20:33:50.675Z,93.00
2023-02-09T20:36:18.424Z,93.30
2023-02-09T20:38:45.215Z,93.50
2023-02-09T20:41:15.294Z,93.40
2023-02-09T20:44:00.885Z,93.30
2023-02-09T20:46:48.491Z,93.50
2023-02-09T20:49:16.778Z,93.30
2023-02-09T20:51:44.805Z,93.20
2023-02-09T20:54:12.001Z,93.40
2023-02-09T20:56:38.685Z,93.80
2023-02-09T20:59:06.752Z,94.30
2023-02-09T21:01:33.652Z,94.70
2023-02-09T21:04:00.421Z,95.20
2023-02-09T21:06:27.283Z,96.00
2023-02-09T21:08:53.952Z,96.10
2023-02-09T21:11:21.436Z,95.70
2023-02-09T21:13:48.272Z,94.90
2023-02-09T21:16:16.007Z,94.70
2023-02-09T21:18:44.296Z,93.70
2023-02-09T21:21:15.893Z,95.30
2023-02-09T21:23:44.367Z,95.50
2023-02-09T21:26:14.497Z,94.80
2023-02-09T21:28:41.260Z,94.70
2023-02-09T21:31:12.723Z,95.10
2023-02-09T21:33:39.625Z,94.70
2023-02-09T21:36:07.204Z,95.70
2023-02-09T21:38:36.702Z,96.80
2023-02-09T21:41:38.772Z,96.40
2023-02-09T21:44:06.892Z,97.00
2023-02-09T21:46:34.340Z,97.60
2023-02-09T21:49:01.042Z,98.70
2023-02-09T21:51:27.706Z,98.60
2023-02-09T21:53:55.246Z,99.20
2023-02-09T21:56:21.955Z,99.80
2023-02-09T21:58:48.805Z,99.90
2023-02-09T22:01:15.951Z,99.90
2023-02-09T22:03:42.798Z,99.90
2023-02-09T22:06:10.349Z,99.90
2023-02-09T22:08:37.497Z,99.90
2023-02-09T22:11:08.329Z,99.90
2023-02-09T22:13:35.258Z,99.90
2023-02-09T22:16:08.448Z,99.90
2023-02-09T22:18:35.980Z,99.90
2023-02-09T22:21:07.370Z,99.90
2023-02-09T22:23:34.101Z,99.90
2023-02-09T22:26:02.232Z,99.90
2023-02-09T22:28:29.592Z,99.90
2023-02-09T22:30:56.822Z,99.90
2023-02-09T22:33:24.017Z,99.90
2023-02-09T22:35:50.666Z,99.90
2023-02-09T22:38:17.325Z,99.90
2023-02-09T22:40:43.973Z,99.90
2023-02-09T22:43:10.664Z,99.90
2023-02-09T22:45:37.315Z,99.90
2023-02-09T22:48:04.198Z,99.90
2023-02-09T22:50:30.993Z,99.90
2023-02-09T22:52:57.653Z,99.90
2023-02-09T22:55:24.339Z,99.90
2023-02-09T22:57:51.010Z,99.90
2023-02-09T23:00:18.026Z,99.90
2023-02-09T23:02:44.734Z,99.90
2023-02-09T23:05:11.362Z,99.90
2023-02-09T23:07:38.035Z,99.90
2023-02-09T23:10:05.265Z,99.90
2023-02-09T23:12:31.962Z,99.90
2023-02-09T23:14:58.593Z,99.90
2023-02-09T23:17:25.255Z,99.90
2023-02-09T23:19:52.230Z,99.90
2023-02-09T23:22:19.020Z,99.90
2023-02-09T23:24:45.670Z,99.90
2023-02-09T23:27:12.324Z,99.90
2023-02-09T23:29:38.984Z,99.90
2023-02-09T23:32:05.635Z,99.90
2023-02-09T23:34:33.455Z,99.90
2023-02-09T23:37:08.550Z,99.90
2023-02-09T23:39:45.052Z,99.90
2023-02-09T23:42:11.693Z,99.90
2023-02-09T23:44:38.410Z,99.90
2023-02-09T23:47:05.120Z,99.90
2023-02-09T23:49:31.846Z,99.90
2023-02-09T23:51:58.592Z,99.90
2023-02-09T23:54:25.246Z,99.90
2023-02-09T23:56:52.672Z,99.90
2023-02-09T23:59:19.331Z,99.90
